Time;durP1;ratioP1;P1;durP2;ratioP2;P2;SDS_P1;SDS_P2;PMS_P1;PMS_P2;Temp;Humidity;BMP_temperature;BMP_pressure;BME280_temperature;BME280_humidity;BME280_pressure;Samples;Min_cycle;Max_cycle;Signal;HPM_P1;HPM_P2
2021/03/01 00:02:17;;;;;;;;;;;16.80;62.10;;;;;;5072106;28;20349;-74
2021/03/01 00:04:43;;;;;;;;;;;16.80;62.10;;;;;;5074738;28;19908;-74
2021/03/01 00:07:09;;;;;;;;;;;16.70;62.10;;;;;;5073619;28;19986;-74
2021/03/01 00:09:34;;;;;;;;;;;16.70;62.10;;;;;;5053982;28;19916;-74
2021/03/01 00:12:00;;;;;;;;;;;16.80;62.10;;;;;;5069221;28;20238;-74
2021/03/01 00:14:25;;;;;;;;;;;16.70;62.20;;;;;;5054573;28;20292;-74
2021/03/01 00:16:51;;;;;;;;;;;16.70;62.20;;;;;;5057264;28;19908;-74
2021/03/01 00:19:22;;;;;;;;;;;16.70;62.20;;;;;;5055919;28;19908;-74
2021/03/01 00:21:47;;;;;;;;;;;16.70;62.20;;;;;;5058181;28;19908;-74
2021/03/01 00:24:13;;;;;;;;;;;16.80;62.20;;;;;;5085301;28;19909;-74
2021/03/01 00:26:38;;;;;;;;;;;16.70;62.20;;;;;;5063959;28;19908;-74
2021/03/01 00:29:04;;;;;;;;;;;16.70;62.20;;;;;;5074630;28;19916;-74
2021/03/01 00:31:30;;;;;;;;;;;16.70;62.30;;;;;;5072335;28;19929;-74
2021/03/01 00:33:55;;;;;;;;;;;16.70;62.30;;;;;;5076442;28;20345;-74
2021/03/01 00:36:20;;;;;;;;;;;16.70;62.30;;;;;;5075914;28;20257;-74
2021/03/01 00:38:46;;;;;;;;;;;16.70;62.30;;;;;;5073063;28;20007;-75
2021/03/01 00:41:11;;;;;;;;;;;16.70;62.30;;;;;;5074079;28;19932;-73
2021/03/01 00:43:37;;;;;;;;;;;16.70;62.30;;;;;;5065920;28;20235;-74
2021/03/01 00:46:03;;;;;;;;;;;16.70;62.30;;;;;;5056784;28;19973;-74
2021/03/01 00:48:29;;;;;;;;;;;16.70;62.30;;;;;;5069685;28;20410;-74
2021/03/01 00:50:54;;;;;;;;;;;16.70;62.30;;;;;;5054260;28;19924;-74
2021/03/01 00:53:27;;;;;;;;;;;16.70;62.40;;;;;;5052348;28;20572;-74
2021/03/01 00:55:53;;;;;;;;;;;16.70;62.40;;;;;;5071659;28;20100;-74
2021/03/01 00:58:19;;;;;;;;;;;16.70;62.40;;;;;;5057935;28;19909;-74
2021/03/01 01:00:45;;;;;;;;;;;16.70;62.40;;;;;;5070772;28;19951;-74
2021/03/01 01:03:11;;;;;;;;;;;16.70;62.40;;;;;;5056389;28;19917;-74
2021/03/01 01:05:37;;;;;;;;;;;16.70;62.40;;;;;;5054062;28;19966;-74
2021/03/01 01:08:02;;;;;;;;;;;16.70;62.40;;;;;;5070139;28;20356;-74
2021/03/01 01:10:28;;;;;;;;;;;16.70;62.50;;;;;;5065825;28;19946;-74
2021/03/01 01:12:54;;;;;;;;;;;16.70;62.50;;;;;;5057108;28;20375;-74
2021/03/01 01:15:20;;;;;;;;;;;16.60;62.50;;;;;;5064253;28;20249;-74
2021/03/01 01:17:45;;;;;;;;;;;16.70;62.50;;;;;;5055515;28;19989;-74
2021/03/01 01:20:11;;;;;;;;;;;16.60;62.50;;;;;;5051733;28;20357;-74
2021/03/01 01:22:37;;;;;;;;;;;16.60;62.50;;;;;;5054292;28;19916;-73
2021/03/01 01:25:04;;;;;;;;;;;16.60;62.50;;;;;;5076517;28;19908;-74
2021/03/01 01:27:30;;;;;;;;;;;16.60;62.50;;;;;;5073893;28;19915;-74
2021/03/01 01:29:55;;;;;;;;;;;16.60;62.60;;;;;;5078147;28;19916;-74
2021/03/01 01:32:21;;;;;;;;;;;16.60;62.60;;;;;;5076492;28;19913;-74
2021/03/01 01:34:46;;;;;;;;;;;16.60;62.60;;;;;;5077022;28;20003;-74
2021/03/01 01:37:12;;;;;;;;;;;16.60;62.60;;;;;;5081779;28;19953;-74
2021/03/01 01:39:37;;;;;;;;;;;16.60;62.60;;;;;;5079252;28;19915;-78
2021/03/01 01:42:03;;;;;;;;;;;16.60;62.60;;;;;;5075382;28;19912;-74
2021/03/01 01:44:28;;;;;;;;;;;16.60;62.60;;;;;;5074860;28;19909;-74
2021/03/01 01:46:54;;;;;;;;;;;16.60;62.60;;;;;;5085053;28;20002;-74
2021/03/01 01:49:19;;;;;;;;;;;16.60;62.60;;;;;;5072845;28;19909;-74
2021/03/01 01:51:45;;;;;;;;;;;16.60;62.70;;;;;;5055217;28;19908;-74
2021/03/01 01:54:10;;;;;;;;;;;16.60;62.60;;;;;;5070215;28;19940;-74
2021/03/01 01:56:36;;;;;;;;;;;16.60;62.70;;;;;;5053454;28;19977;-75
2021/03/01 01:59:02;;;;;;;;;;;16.60;62.60;;;;;;5073857;28;19908;-75
2021/03/01 02:01:27;;;;;;;;;;;16.60;62.70;;;;;;5078571;28;20391;-75
2021/03/01 02:04:02;;;;;;;;;;;16.60;62.70;;;;;;5074800;28;19939;-75
2021/03/01 02:06:36;;;;;;;;;;;16.60;62.70;;;;;;5046674;28;19908;-75
2021/03/01 02:09:20;;;;;;;;;;;16.60;62.70;;;;;;5059209;28;19931;-75
2021/03/01 02:11:56;;;;;;;;;;;16.60;62.70;;;;;;5056680;28;19923;-75
2021/03/01 02:14:26;;;;;;;;;;;16.60;62.70;;;;;;5075994;28;20363;-74
2021/03/01 02:16:51;;;;;;;;;;;16.60;62.70;;;;;;5071620;28;19909;-74
2021/03/01 02:19:19;;;;;;;;;;;16.60;62.70;;;;;;5056455;28;20307;-74
2021/03/01 02:21:45;;;;;;;;;;;16.60;62.70;;;;;;5073291;28;19908;-74
2021/03/01 02:24:17;;;;;;;;;;;16.60;62.70;;;;;;5073936;28;20012;-74
2021/03/01 02:26:46;;;;;;;;;;;16.60;62.70;;;;;;5055922;28;19998;-75
2021/03/01 02:29:13;;;;;;;;;;;16.60;62.80;;;;;;5052695;28;19963;-75
2021/03/01 02:31:41;;;;;;;;;;;16.50;62.80;;;;;;5055590;28;19917;-74
2021/03/01 02:34:07;;;;;;;;;;;16.50;62.80;;;;;;5078747;28;20265;-75
2021/03/01 02:36:39;;;;;;;;;;;16.50;62.80;;;;;;5068479;28;19913;-75
2021/03/01 02:39:05;;;;;;;;;;;16.50;62.80;;;;;;5072990;28;19908;-74
2021/03/01 02:41:32;;;;;;;;;;;16.60;62.80;;;;;;5059345;28;19916;-74
2021/03/01 02:43:57;;;;;;;;;;;16.50;62.80;;;;;;5057724;28;19943;-75
2021/03/01 02:46:23;;;;;;;;;;;16.50;62.80;;;;;;5069543;28;20384;-75
2021/03/01 02:48:49;;;;;;;;;;;16.50;62.80;;;;;;5072667;28;19915;-74
2021/03/01 02:51:15;;;;;;;;;;;16.50;62.80;;;;;;5058237;28;19917;-74
2021/03/01 02:53:42;;;;;;;;;;;16.50;62.80;;;;;;5067482;28;19908;-74
2021/03/01 02:56:08;;;;;;;;;;;16.50;62.90;;;;;;5054913;28;19920;-74
2021/03/01 02:58:35;;;;;;;;;;;16.50;62.90;;;;;;5054852;28;19909;-74
2021/03/01 03:01:01;;;;;;;;;;;16.50;62.90;;;;;;5046473;28;19912;-74
2021/03/01 03:03:27;;;;;;;;;;;16.50;62.90;;;;;;5072887;28;19909;-74
2021/03/01 03:05:53;;;;;;;;;;;16.50;62.90;;;;;;5057418;28;19913;-74
2021/03/01 03:08:19;;;;;;;;;;;16.50;62.80;;;;;;5055682;28;19962;-74
2021/03/01 03:10:46;;;;;;;;;;;16.50;62.90;;;;;;5071201;28;20007;-74
2021/03/01 03:13:12;;;;;;;;;;;16.50;62.90;;;;;;5073425;28;20242;-75
2021/03/01 03:15:39;;;;;;;;;;;16.50;62.90;;;;;;5073590;28;19912;-74
2021/03/01 03:18:04;;;;;;;;;;;16.50;62.90;;;;;;5073736;28;19916;-75
2021/03/01 03:20:30;;;;;;;;;;;16.50;62.90;;;;;;5066126;28;19908;-74
2021/03/01 03:22:55;;;;;;;;;;;16.50;62.90;;;;;;5055560;28;20392;-75
2021/03/01 03:25:21;;;;;;;;;;;16.50;63.00;;;;;;5050835;28;19909;-74
2021/03/01 03:27:46;;;;;;;;;;;16.50;62.90;;;;;;5074643;28;19915;-75
2021/03/01 03:30:14;;;;;;;;;;;16.50;63.00;;;;;;5065057;28;19927;-74
2021/03/01 03:32:39;;;;;;;;;;;16.50;63.00;;;;;;5070259;28;19953;-75
2021/03/01 03:35:05;;;;;;;;;;;16.50;63.00;;;;;;5071269;28;19909;-75
2021/03/01 03:37:34;;;;;;;;;;;16.50;63.00;;;;;;5065518;28;20010;-75
2021/03/01 03:40:00;;;;;;;;;;;16.50;63.00;;;;;;5059178;28;19921;-75
2021/03/01 03:42:29;;;;;;;;;;;16.50;63.00;;;;;;5055192;28;19917;-74
2021/03/01 03:44:56;;;;;;;;;;;16.50;63.00;;;;;;5057242;28;19920;-74
2021/03/01 03:47:23;;;;;;;;;;;16.50;63.00;;;;;;5061484;28;19908;-74
2021/03/01 03:49:51;;;;;;;;;;;16.50;63.00;;;;;;5051607;28;19929;-74
2021/03/01 03:52:17;;;;;;;;;;;16.50;63.00;;;;;;5054813;28;19909;-74
2021/03/01 03:54:45;;;;;;;;;;;16.50;63.00;;;;;;5066748;28;19912;-74
2021/03/01 03:57:17;;;;;;;;;;;16.50;63.00;;;;;;5055628;28;20272;-74
2021/03/01 03:59:43;;;;;;;;;;;16.40;63.00;;;;;;5052254;28;20379;-74
2021/03/01 04:02:09;;;;;;;;;;;16.50;63.00;;;;;;5049541;28;19999;-74
2021/03/01 04:04:36;;;;;;;;;;;16.40;63.00;;;;;;5071748;28;19995;-74
2021/03/01 04:07:02;;;;;;;;;;;16.40;63.10;;;;;;5072694;28;19920;-75
2021/03/01 04:09:28;;;;;;;;;;;16.50;63.10;;;;;;5069294;28;19919;-74
2021/03/01 04:11:54;;;;;;;;;;;16.50;63.10;;;;;;5065934;28;19916;-75
2021/03/01 04:14:24;;;;;;;;;;;16.40;63.10;;;;;;5069205;28;19959;-74
2021/03/01 04:16:51;;;;;;;;;;;16.50;63.10;;;;;;5075790;28;19954;-74
2021/03/01 04:19:18;;;;;;;;;;;16.40;63.10;;;;;;5062668;28;19923;-74
2021/03/01 04:21:45;;;;;;;;;;;16.50;63.10;;;;;;5068791;28;19908;-74
2021/03/01 04:24:14;;;;;;;;;;;16.40;63.10;;;;;;5076049;28;20003;-74
2021/03/01 04:26:40;;;;;;;;;;;16.40;63.10;;;;;;5049571;28;20381;-75
2021/03/01 04:29:05;;;;;;;;;;;16.40;63.10;;;;;;5072999;28;19975;-75
2021/03/01 04:31:31;;;;;;;;;;;16.40;63.10;;;;;;5068787;28;19927;-74
2021/03/01 04:33:57;;;;;;;;;;;16.50;63.10;;;;;;5051776;28;19905;-75
2021/03/01 04:36:24;;;;;;;;;;;16.50;63.10;;;;;;5081561;28;19912;-74
2021/03/01 04:38:50;;;;;;;;;;;16.40;63.10;;;;;;5061137;28;19948;-75
2021/03/01 04:41:16;;;;;;;;;;;16.40;63.10;;;;;;5056963;28;19908;-74
2021/03/01 04:43:42;;;;;;;;;;;16.40;63.10;;;;;;5055678;28;20329;-74
2021/03/01 04:46:08;;;;;;;;;;;16.40;63.10;;;;;;5060449;28;20002;-75
2021/03/01 04:48:35;;;;;;;;;;;16.40;63.20;;;;;;5065420;28;19909;-75
2021/03/01 04:51:01;;;;;;;;;;;16.40;63.20;;;;;;5070580;28;20269;-74
2021/03/01 04:53:27;;;;;;;;;;;16.40;63.20;;;;;;5067156;28;20015;-74
2021/03/01 04:55:53;;;;;;;;;;;16.40;63.20;;;;;;5062162;28;20373;-74
2021/03/01 04:58:20;;;;;;;;;;;16.40;63.20;;;;;;5053813;28;19912;-74
2021/03/01 05:00:45;;;;;;;;;;;16.40;63.20;;;;;;5071092;28;19908;-74
2021/03/01 05:03:11;;;;;;;;;;;16.40;63.20;;;;;;5063698;28;19908;-74
2021/03/01 05:05:37;;;;;;;;;;;16.40;63.20;;;;;;5061764;28;20261;-74
2021/03/01 05:08:04;;;;;;;;;;;16.40;63.20;;;;;;5075065;28;19916;-74
2021/03/01 05:10:31;;;;;;;;;;;16.40;63.20;;;;;;5062533;28;19920;-74
2021/03/01 05:12:56;;;;;;;;;;;16.40;63.20;;;;;;5060077;28;19951;-74
2021/03/01 05:15:22;;;;;;;;;;;16.40;63.20;;;;;;5071181;28;19952;-74
2021/03/01 05:17:47;;;;;;;;;;;16.40;63.20;;;;;;5055035;28;20306;-74
2021/03/01 05:20:13;;;;;;;;;;;16.40;63.20;;;;;;5071465;28;19908;-74
2021/03/01 05:22:39;;;;;;;;;;;16.40;63.20;;;;;;5066770;28;20368;-74
2021/03/01 05:25:05;;;;;;;;;;;16.40;63.20;;;;;;5049651;28;19986;-74
2021/03/01 05:27:33;;;;;;;;;;;16.30;63.20;;;;;;5065711;28;19958;-74
2021/03/01 05:29:58;;;;;;;;;;;16.40;63.20;;;;;;5053120;28;19916;-74
2021/03/01 05:32:24;;;;;;;;;;;16.40;63.20;;;;;;5065312;28;20273;-74
2021/03/01 05:34:55;;;;;;;;;;;16.40;63.20;;;;;;5070483;28;19950;-76
2021/03/01 05:37:21;;;;;;;;;;;16.40;63.20;;;;;;5060814;28;19909;-73
2021/03/01 05:39:46;;;;;;;;;;;16.30;63.20;;;;;;5050063;28;19924;-73
2021/03/01 05:42:12;;;;;;;;;;;16.40;63.30;;;;;;5071599;28;20380;-73
2021/03/01 05:44:41;;;;;;;;;;;16.40;63.20;;;;;;5066465;28;19955;-73
2021/03/01 05:47:08;;;;;;;;;;;16.40;63.30;;;;;;5059924;28;19993;-73
2021/03/01 05:49:35;;;;;;;;;;;16.40;63.30;;;;;;5066609;28;19916;-73
2021/03/01 05:52:01;;;;;;;;;;;16.30;63.30;;;;;;5069538;28;19912;-73
2021/03/01 05:54:29;;;;;;;;;;;16.40;63.30;;;;;;5080167;28;19908;-72
2021/03/01 05:56:54;;;;;;;;;;;16.30;63.30;;;;;;5052622;28;19926;-73
2021/03/01 05:59:20;;;;;;;;;;;16.40;63.30;;;;;;5069828;28;19909;-73
2021/03/01 06:01:46;;;;;;;;;;;16.30;63.30;;;;;;5051575;28;19921;-73
2021/03/01 06:04:12;;;;;;;;;;;16.40;63.30;;;;;;5071139;28;19908;-73
2021/03/01 06:06:38;;;;;;;;;;;16.30;63.30;;;;;;5070583;28;19908;-73
2021/03/01 06:09:03;;;;;;;;;;;16.30;63.30;;;;;;5054063;28;19925;-73
2021/03/01 06:11:29;;;;;;;;;;;16.30;63.30;;;;;;5052445;28;19940;-73
2021/03/01 06:13:54;;;;;;;;;;;16.40;63.30;;;;;;5073656;28;19909;-73
2021/03/01 06:16:20;;;;;;;;;;;16.30;63.30;;;;;;5054068;28;19948;-72
2021/03/01 06:18:51;;;;;;;;;;;16.30;63.20;;;;;;5071695;28;19951;-73
2021/03/01 06:21:18;;;;;;;;;;;16.30;63.20;;;;;;5068004;28;19908;-72
2021/03/01 06:23:44;;;;;;;;;;;16.30;63.30;;;;;;5054402;28;20011;-73
2021/03/01 06:26:29;;;;;;;;;;;16.30;63.30;;;;;;5058820;28;20010;-72
2021/03/01 06:28:56;;;;;;;;;;;16.40;63.20;;;;;;5079565;28;19983;-73
2021/03/01 06:31:31;;;;;;;;;;;16.30;63.20;;;;;;5055980;28;19923;-73
2021/03/01 06:34:15;;;;;;;;;;;16.40;63.20;;;;;;5072845;28;19948;-74
2021/03/01 06:36:58;;;;;;;;;;;16.40;63.20;;;;;;5069985;28;19958;-74
2021/03/01 06:39:35;;;;;;;;;;;16.40;63.20;;;;;;5072081;28;20327;-74
2021/03/01 06:42:16;;;;;;;;;;;16.40;63.20;;;;;;5049918;28;20284;-74
2021/03/01 06:44:45;;;;;;;;;;;16.30;63.20;;;;;;5070131;28;19916;-74
2021/03/01 06:47:11;;;;;;;;;;;16.40;63.20;;;;;;5056556;28;19912;-74
2021/03/01 06:49:37;;;;;;;;;;;16.40;63.20;;;;;;5054459;28;20304;-74
2021/03/01 06:52:03;;;;;;;;;;;16.40;63.20;;;;;;5070843;28;19913;-74
2021/03/01 06:54:29;;;;;;;;;;;16.40;63.20;;;;;;5066242;28;19909;-74
2021/03/01 06:56:55;;;;;;;;;;;16.40;63.20;;;;;;5060854;28;19908;-74
2021/03/01 06:59:21;;;;;;;;;;;16.40;63.20;;;;;;5073709;28;20373;-74
2021/03/01 07:01:49;;;;;;;;;;;16.40;63.20;;;;;;5049226;28;20308;-74
2021/03/01 07:04:25;;;;;;;;;;;16.40;63.20;;;;;;5077342;28;19904;-74
2021/03/01 07:06:52;;;;;;;;;;;16.40;63.10;;;;;;5087383;28;19908;-74
2021/03/01 07:09:18;;;;;;;;;;;16.40;63.10;;;;;;5071617;28;19911;-74
2021/03/01 07:11:45;;;;;;;;;;;16.40;63.10;;;;;;5054538;28;20380;-74
2021/03/01 07:14:11;;;;;;;;;;;16.40;63.10;;;;;;5055180;28;19916;-74
2021/03/01 07:16:37;;;;;;;;;;;16.40;63.10;;;;;;5070648;28;19963;-74
2021/03/01 07:19:04;;;;;;;;;;;16.40;63.10;;;;;;5068213;28;20234;-74
2021/03/01 07:21:30;;;;;;;;;;;16.30;63.10;;;;;;5047532;28;19909;-74
2021/03/01 07:23:57;;;;;;;;;;;16.40;63.10;;;;;;5054405;28;20416;-74
2021/03/01 07:26:24;;;;;;;;;;;16.40;63.10;;;;;;5056141;28;19948;-74
2021/03/01 07:28:51;;;;;;;;;;;16.40;63.10;;;;;;5047725;28;19917;-74
2021/03/01 07:31:17;;;;;;;;;;;16.40;63.00;;;;;;5044735;28;19917;-74
2021/03/01 07:33:43;;;;;;;;;;;16.40;63.00;;;;;;5034674;28;19916;-74
2021/03/01 07:36:09;;;;;;;;;;;16.40;63.00;;;;;;5056741;28;20249;-75
2021/03/01 07:38:35;;;;;;;;;;;16.40;63.00;;;;;;5046044;28;20050;-74
2021/03/01 07:41:02;;;;;;;;;;;16.40;63.00;;;;;;5035829;28;19987;-74
2021/03/01 07:43:27;;;;;;;;;;;16.40;63.00;;;;;;5050875;28;19915;-74
2021/03/01 07:45:54;;;;;;;;;;;16.40;63.00;;;;;;5032996;28;19912;-75
2021/03/01 07:48:20;;;;;;;;;;;16.40;63.00;;;;;;5052561;28;19955;-74
2021/03/01 07:50:46;;;;;;;;;;;16.40;63.00;;;;;;5034133;28;19941;-74
2021/03/01 07:53:30;;;;;;;;;;;16.40;62.90;;;;;;5034671;28;19909;-74
2021/03/01 07:56:16;;;;;;;;;;;16.40;62.90;;;;;;5019353;28;20385;-74
2021/03/01 07:58:54;;;;;;;;;;;16.40;62.90;;;;;;5053218;28;19909;-74
2021/03/01 08:01:19;;;;;;;;;;;16.40;62.90;;;;;;5060040;28;19908;-74
2021/03/01 08:03:45;;;;;;;;;;;16.50;62.90;;;;;;5046303;28;19913;-74
2021/03/01 08:06:10;;;;;;;;;;;16.50;62.90;;;;;;5053088;28;20270;-74
2021/03/01 08:08:43;;;;;;;;;;;16.50;62.90;;;;;;5034218;28;20003;-74
2021/03/01 08:11:09;;;;;;;;;;;16.50;62.90;;;;;;5034371;28;19921;-75
2021/03/01 08:13:34;;;;;;;;;;;16.50;62.90;;;;;;5032958;28;19913;-74
2021/03/01 08:16:26;;;;;;;;;;;16.40;62.80;;;;;;5040869;28;20338;-74
2021/03/01 08:18:52;;;;;;;;;;;16.40;62.80;;;;;;5036811;28;19995;-74
2021/03/01 08:21:18;;;;;;;;;;;16.50;62.80;;;;;;5037710;28;19909;-73
2021/03/01 08:23:47;;;;;;;;;;;16.40;62.80;;;;;;5051913;28;19955;-74
2021/03/01 08:26:26;;;;;;;;;;;16.50;62.80;;;;;;5032934;28;21479;-74
2021/03/01 08:28:56;;;;;;;;;;;16.50;62.80;;;;;;5055075;28;20018;-75
2021/03/01 08:31:23;;;;;;;;;;;16.50;62.80;;;;;;5052739;28;20358;-74
2021/03/01 08:33:49;;;;;;;;;;;16.50;62.80;;;;;;5048622;28;20387;-74
2021/03/01 08:36:15;;;;;;;;;;;16.50;62.80;;;;;;5036824;28;19909;-74
2021/03/01 08:38:40;;;;;;;;;;;16.40;62.80;;;;;;5046010;28;19913;-74
2021/03/01 08:41:09;;;;;;;;;;;16.40;62.80;;;;;;5037932;28;19915;-74
2021/03/01 08:43:36;;;;;;;;;;;16.50;62.70;;;;;;5047882;28;20333;-74
2021/03/01 08:46:05;;;;;;;;;;;16.50;62.70;;;;;;5051310;28;20354;-74
2021/03/01 08:48:31;;;;;;;;;;;16.50;62.80;;;;;;5045156;28;19908;-74
2021/03/01 08:50:56;;;;;;;;;;;16.50;62.70;;;;;;5041940;28;19923;-74
2021/03/01 08:53:23;;;;;;;;;;;16.50;62.70;;;;;;5032907;28;20007;-74
2021/03/01 08:55:49;;;;;;;;;;;16.50;62.70;;;;;;5033499;28;19943;-74
2021/03/01 08:58:15;;;;;;;;;;;16.50;62.60;;;;;;5033904;28;19908;-75
2021/03/01 09:00:55;;;;;;;;;;;16.50;62.70;;;;;;5030642;28;19920;-74
2021/03/01 09:03:22;;;;;;;;;;;16.50;62.60;;;;;;5050234;28;20321;-74
2021/03/01 09:05:49;;;;;;;;;;;16.50;62.60;;;;;;5036315;28;20358;-75
2021/03/01 09:08:22;;;;;;;;;;;16.50;62.60;;;;;;5030457;28;19913;-74
2021/03/01 09:10:47;;;;;;;;;;;16.50;62.60;;;;;;5036004;28;19919;-76
2021/03/01 09:13:17;;;;;;;;;;;16.50;62.60;;;;;;5046850;28;20341;-76
2021/03/01 09:15:42;;;;;;;;;;;16.50;62.50;;;;;;5047250;28;19915;-76
2021/03/01 09:18:09;;;;;;;;;;;16.50;62.50;;;;;;5048513;28;19908;-76
2021/03/01 09:20:41;;;;;;;;;;;16.50;62.50;;;;;;5055780;28;19908;-77
2021/03/01 09:23:07;;;;;;;;;;;16.60;62.50;;;;;;5049466;28;19921;-76
2021/03/01 09:25:34;;;;;;;;;;;16.60;62.50;;;;;;5053523;28;19913;-76
2021/03/01 09:28:00;;;;;;;;;;;16.60;62.50;;;;;;5064352;28;19909;-76
2021/03/01 09:30:26;;;;;;;;;;;16.60;62.50;;;;;;5051667;28;19923;-76
2021/03/01 09:33:01;;;;;;;;;;;16.60;62.40;;;;;;5043965;28;20377;-77
2021/03/01 09:35:32;;;;;;;;;;;16.60;62.40;;;;;;5045490;28;19916;-77
2021/03/01 09:37:58;;;;;;;;;;;16.60;62.30;;;;;;5042264;28;19909;-77
2021/03/01 09:40:24;;;;;;;;;;;16.60;62.40;;;;;;5047209;28;19915;-77
2021/03/01 09:42:51;;;;;;;;;;;16.60;62.40;;;;;;5030090;28;19996;-77
2021/03/01 09:45:18;;;;;;;;;;;16.60;62.40;;;;;;5029970;28;19917;-76
2021/03/01 09:47:43;;;;;;;;;;;16.60;62.30;;;;;;5037779;28;19927;-77
2021/03/01 09:50:10;;;;;;;;;;;16.60;62.30;;;;;;5055148;28;20265;-76
2021/03/01 09:52:35;;;;;;;;;;;16.60;62.30;;;;;;5037135;28;19936;-76
2021/03/01 09:55:02;;;;;;;;;;;16.60;62.30;;;;;;5052312;28;19924;-76
2021/03/01 09:57:29;;;;;;;;;;;16.60;62.30;;;;;;5057480;28;19909;-76
2021/03/01 09:59:54;;;;;;;;;;;16.60;62.30;;;;;;5051690;28;19943;-75
2021/03/01 10:02:20;;;;;;;;;;;16.60;62.30;;;;;;5053336;28;20380;-76
2021/03/01 10:04:47;;;;;;;;;;;16.60;62.20;;;;;;5050566;28;19991;-76
2021/03/01 10:07:25;;;;;;;;;;;16.60;62.20;;;;;;5032447;28;19955;-76
2021/03/01 10:09:52;;;;;;;;;;;16.70;62.20;;;;;;5048190;28;19928;-76
2021/03/01 10:12:18;;;;;;;;;;;16.70;62.20;;;;;;5040887;28;19920;-76
2021/03/01 10:14:44;;;;;;;;;;;16.60;62.20;;;;;;5056661;28;19912;-76
2021/03/01 10:17:13;;;;;;;;;;;16.70;62.20;;;;;;5036844;28;19995;-76
2021/03/01 10:19:39;;;;;;;;;;;16.60;62.10;;;;;;5064423;28;21677;-76
2021/03/01 10:22:09;;;;;;;;;;;16.70;62.20;;;;;;5050949;28;20474;-76
2021/03/01 10:24:46;;;;;;;;;;;16.60;62.10;;;;;;5052660;28;19964;-77
2021/03/01 10:27:12;;;;;;;;;;;16.70;62.10;;;;;;5038897;28;19919;-77
2021/03/01 10:29:44;;;;;;;;;;;16.70;62.10;;;;;;5055549;28;19981;-77
2021/03/01 10:32:20;;;;;;;;;;;16.70;62.00;;;;;;5072319;28;19951;-77
2021/03/01 10:34:47;;;;;;;;;;;16.70;62.10;;;;;;5066291;28;20396;-76
2021/03/01 10:37:13;;;;;;;;;;;16.70;62.00;;;;;;5070747;28;20012;-76
2021/03/01 10:39:40;;;;;;;;;;;16.70;62.00;;;;;;5070717;28;19909;-77
2021/03/01 10:42:13;;;;;;;;;;;16.70;62.00;;;;;;5075203;28;19995;-76
2021/03/01 10:44:46;;;;;;;;;;;16.70;61.90;;;;;;5053228;28;20058;-75
2021/03/01 10:47:18;;;;;;;;;;;16.70;61.90;;;;;;5071211;28;19912;-75
2021/03/01 10:49:44;;;;;;;;;;;16.70;61.90;;;;;;5047264;28;19913;-75
2021/03/01 10:52:12;;;;;;;;;;;16.70;61.90;;;;;;5052458;28;20256;-75
2021/03/01 10:54:40;;;;;;;;;;;16.70;61.90;;;;;;5073513;28;19989;-75
2021/03/01 10:57:06;;;;;;;;;;;16.70;61.90;;;;;;5071770;28;19915;-75
2021/03/01 10:59:32;;;;;;;;;;;16.70;61.90;;;;;;5065824;28;19909;-75
2021/03/01 11:02:03;;;;;;;;;;;16.80;61.90;;;;;;5076241;28;19914;-75
2021/03/01 11:04:28;;;;;;;;;;;16.70;61.80;;;;;;5054805;28;19908;-75
2021/03/01 11:06:59;;;;;;;;;;;16.80;61.80;;;;;;5055928;28;20251;-75
2021/03/01 11:09:24;;;;;;;;;;;16.80;61.80;;;;;;5073309;28;19931;-75
2021/03/01 11:11:52;;;;;;;;;;;16.70;61.80;;;;;;5073687;28;19912;-75
2021/03/01 11:14:22;;;;;;;;;;;16.80;61.80;;;;;;5051999;28;19955;-75
2021/03/01 11:16:52;;;;;;;;;;;16.80;61.70;;;;;;5065617;28;19909;-74
2021/03/01 11:19:18;;;;;;;;;;;16.80;61.70;;;;;;5055110;28;19991;-74
2021/03/01 11:21:44;;;;;;;;;;;16.80;61.70;;;;;;5054618;28;20003;-74
2021/03/01 11:24:10;;;;;;;;;;;16.80;61.70;;;;;;5073402;28;20341;-74
2021/03/01 11:26:36;;;;;;;;;;;16.80;61.60;;;;;;5068835;28;19916;-74
2021/03/01 11:29:01;;;;;;;;;;;16.80;61.70;;;;;;5066153;28;19917;-74
2021/03/01 11:31:32;;;;;;;;;;;16.80;61.60;;;;;;5072017;28;19912;-75
2021/03/01 11:33:57;;;;;;;;;;;16.80;61.60;;;;;;5055608;28;20406;-75
2021/03/01 11:36:23;;;;;;;;;;;16.80;61.50;;;;;;5071472;28;19912;-75
2021/03/01 11:38:48;;;;;;;;;;;16.80;61.60;;;;;;5064022;28;19915;-75
2021/03/01 11:41:15;;;;;;;;;;;16.80;61.50;;;;;;5070767;28;19909;-75
2021/03/01 11:43:46;;;;;;;;;;;16.80;61.50;;;;;;5082945;28;19961;-74
2021/03/01 11:46:12;;;;;;;;;;;16.80;61.60;;;;;;5054262;28;20390;-74
2021/03/01 11:48:38;;;;;;;;;;;16.80;61.50;;;;;;5054141;28;19908;-74
2021/03/01 11:51:04;;;;;;;;;;;16.80;61.50;;;;;;5055797;28;20353;-75
2021/03/01 11:53:29;;;;;;;;;;;16.80;61.50;;;;;;5053462;28;19919;-75
2021/03/01 11:55:55;;;;;;;;;;;16.80;61.50;;;;;;5067728;28;19912;-75
2021/03/01 11:58:21;;;;;;;;;;;16.80;61.50;;;;;;5053927;28;19913;-74
2021/03/01 12:00:46;;;;;;;;;;;16.80;61.40;;;;;;5078241;28;19908;-75
2021/03/01 12:03:12;;;;;;;;;;;16.80;61.40;;;;;;5054639;28;19962;-74
2021/03/01 12:05:39;;;;;;;;;;;16.80;61.40;;;;;;5061778;28;20338;-74
2021/03/01 12:08:04;;;;;;;;;;;16.80;61.40;;;;;;5069561;28;19908;-75
2021/03/01 12:10:30;;;;;;;;;;;16.80;61.40;;;;;;5071374;28;19920;-75
2021/03/01 12:12:56;;;;;;;;;;;16.80;61.30;;;;;;5069682;28;19919;-75
2021/03/01 12:15:22;;;;;;;;;;;16.80;61.40;;;;;;5054768;28;19908;-75
2021/03/01 12:17:47;;;;;;;;;;;16.80;61.30;;;;;;5066706;28;20268;-75
2021/03/01 12:20:13;;;;;;;;;;;16.80;61.30;;;;;;5070696;28;19912;-75
2021/03/01 12:22:38;;;;;;;;;;;16.90;61.30;;;;;;5067275;28;19948;-74
2021/03/01 12:25:04;;;;;;;;;;;16.80;61.30;;;;;;5078412;28;19912;-74
2021/03/01 12:27:30;;;;;;;;;;;16.80;61.30;;;;;;5055538;28;20373;-74
2021/03/01 12:29:55;;;;;;;;;;;16.90;61.20;;;;;;5059528;28;19916;-74
2021/03/01 12:32:21;;;;;;;;;;;16.80;61.30;;;;;;5054330;28;20250;-74
2021/03/01 12:34:46;;;;;;;;;;;16.90;61.30;;;;;;5055065;28;19909;-74
2021/03/01 12:37:15;;;;;;;;;;;16.90;61.20;;;;;;5054599;28;19912;-74
2021/03/01 12:39:41;;;;;;;;;;;16.80;61.20;;;;;;5053716;28;20359;-74
2021/03/01 12:42:07;;;;;;;;;;;16.90;61.20;;;;;;5068005;28;19912;-74
2021/03/01 12:44:33;;;;;;;;;;;16.90;61.20;;;;;;5065246;28;19974;-74
2021/03/01 12:46:58;;;;;;;;;;;16.90;61.20;;;;;;5079877;28;19919;-74
2021/03/01 12:49:24;;;;;;;;;;;16.90;61.20;;;;;;5072103;28;19912;-74
2021/03/01 12:51:50;;;;;;;;;;;16.90;61.20;;;;;;5055407;28;19912;-74
2021/03/01 12:54:15;;;;;;;;;;;16.90;61.10;;;;;;5071020;28;20298;-75
2021/03/01 12:56:41;;;;;;;;;;;16.90;61.10;;;;;;5071108;28;19909;-75
2021/03/01 12:59:06;;;;;;;;;;;16.90;61.10;;;;;;5055243;28;19995;-74
2021/03/01 13:01:33;;;;;;;;;;;16.90;61.10;;;;;;5044125;28;19913;-76
2021/03/01 13:03:58;;;;;;;;;;;16.90;61.10;;;;;;5064341;28;20000;-76
2021/03/01 13:06:24;;;;;;;;;;;16.90;61.00;;;;;;5066756;28;20004;-74
2021/03/01 13:08:49;;;;;;;;;;;16.90;61.10;;;;;;5050683;28;19916;-73
2021/03/01 13:11:18;;;;;;;;;;;16.90;61.10;;;;;;5067715;28;19916;-73
2021/03/01 13:13:44;;;;;;;;;;;16.90;61.10;;;;;;5052122;28;20394;-73
2021/03/01 13:16:10;;;;;;;;;;;16.90;61.10;;;;;;5050556;28;19992;-73
2021/03/01 13:18:35;;;;;;;;;;;16.90;61.00;;;;;;5065912;28;19931;-73
2021/03/01 13:21:01;;;;;;;;;;;16.90;61.00;;;;;;5083406;28;19909;-74
2021/03/01 13:23:27;;;;;;;;;;;16.90;61.10;;;;;;5055983;28;20049;-73
2021/03/01 13:25:53;;;;;;;;;;;16.90;61.00;;;;;;5056567;28;19963;-73
2021/03/01 13:28:19;;;;;;;;;;;16.90;61.00;;;;;;5068198;28;19995;-75
2021/03/01 13:30:44;;;;;;;;;;;17.00;61.00;;;;;;5059133;28;19991;-75
2021/03/01 13:33:10;;;;;;;;;;;17.00;61.00;;;;;;5071521;28;19919;-75
2021/03/01 13:35:36;;;;;;;;;;;16.90;61.00;;;;;;5053941;28;19999;-74
2021/03/01 13:38:02;;;;;;;;;;;17.00;61.00;;;;;;5075323;28;19909;-74
2021/03/01 13:40:27;;;;;;;;;;;17.00;61.00;;;;;;5074094;28;19909;-74
2021/03/01 13:42:53;;;;;;;;;;;17.00;60.90;;;;;;5057251;28;19918;-74
2021/03/01 13:45:19;;;;;;;;;;;16.90;61.00;;;;;;5057114;28;19920;-74
2021/03/01 13:47:45;;;;;;;;;;;16.90;61.00;;;;;;5055929;28;19917;-74
2021/03/01 13:50:11;;;;;;;;;;;17.00;61.00;;;;;;5049045;28;19916;-74
2021/03/01 13:52:36;;;;;;;;;;;17.00;61.00;;;;;;5074228;28;19963;-74
2021/03/01 13:55:02;;;;;;;;;;;17.00;60.90;;;;;;5057397;28;20338;-74
2021/03/01 13:57:28;;;;;;;;;;;17.00;60.90;;;;;;5068848;28;19915;-74
2021/03/01 13:59:59;;;;;;;;;;;17.00;60.90;;;;;;5067355;28;19924;-73
2021/03/01 14:02:25;;;;;;;;;;;17.00;60.90;;;;;;5055031;28;20364;-74
2021/03/01 14:04:51;;;;;;;;;;;17.00;60.90;;;;;;5072844;28;19909;-74
2021/03/01 14:07:19;;;;;;;;;;;17.00;60.80;;;;;;5062158;28;19916;-74
2021/03/01 14:09:45;;;;;;;;;;;17.00;60.90;;;;;;5067288;28;19943;-73
2021/03/01 14:12:11;;;;;;;;;;;17.00;60.80;;;;;;5052216;28;20358;-74
2021/03/01 14:14:37;;;;;;;;;;;17.00;60.80;;;;;;5067869;28;19923;-74
2021/03/01 14:17:02;;;;;;;;;;;17.00;60.90;;;;;;5055448;28;19908;-74